Time;durP1;ratioP1;P1;durP2;ratioP2;P2;SDS_P1;SDS_P2;PMS_P1;PMS_P2;Temp;Humidity;BMP_temperature;BMP_pressure;BME280_temperature;BME280_humidity;BME280_pressure;Samples;Min_cycle;Max_cycle;Signal;HPM_P1;HPM_P2
2021/09/30 00:00:14;;;;;;;3.63;2.35;;;4.20;99.90;;;;;;5033073;28;20081;-87
2021/09/30 00:02:40;;;;;;;3.63;2.25;;;4.20;99.90;;;;;;5031979;28;20057;-87
2021/09/30 00:05:09;;;;;;;3.47;2.33;;;4.10;99.90;;;;;;5031679;28;20142;-86
2021/09/30 00:07:37;;;;;;;3.08;2.08;;;4.10;99.90;;;;;;5031586;28;20096;-87
2021/09/30 00:10:06;;;;;;;3.20;2.40;;;4.10;99.90;;;;;;5035607;28;20053;-87
2021/09/30 00:12:39;;;;;;;11.48;3.17;;;4.00;99.90;;;;;;5036900;28;20486;-87
2021/09/30 00:15:10;;;;;;;5.25;2.40;;;4.00;99.90;;;;;;5035418;28;20052;-87
2021/09/30 00:18:08;;;;;;;3.03;2.42;;;3.90;99.90;;;;;;5035395;28;20081;-86
2021/09/30 00:32:37;;;;;;;3.42;3.10;;;4.20;99.90;;;;;;5036212;28;20406;-86
2021/09/30 00:40:25;;;;;;;3.83;3.25;;;4.40;99.90;;;;;;5036014;28;20055;-86
2021/09/30 01:25:09;;;;;;;7.30;3.53;;;4.30;99.90;;;;;;5035383;28;20053;-88
2021/09/30 01:28:21;;;;;;;4.72;2.55;;;4.30;99.90;;;;;;5035285;28;20128;-87
2021/09/30 01:33:19;;;;;;;6.40;2.35;;;4.30;99.90;;;;;;5035395;28;20052;-87
2021/09/30 01:46:38;;;;;;;3.40;3.10;;;4.20;99.90;;;;;;5034932;28;20045;-87
2021/09/30 02:26:08;;;;;;;6.78;3.17;;;4.40;99.90;;;;;;5033906;28;20067;-87
2021/09/30 02:28:48;;;;;;;4.53;3.03;;;4.40;99.90;;;;;;5033216;28;20455;-86
2021/09/30 02:59:06;;;;;;;5.10;2.65;;;4.80;99.90;;;;;;5033783;28;20118;-87
2021/09/30 03:01:34;;;;;;;3.33;3.03;;;4.80;99.90;;;;;;5033520;28;20051;-87
2021/09/30 03:04:03;;;;;;;7.40;3.80;;;4.80;99.90;;;;;;5033771;28;20096;-87
2021/09/30 03:06:30;;;;;;;8.48;3.75;;;4.90;99.90;;;;;;5033483;28;20112;-87
2021/09/30 03:08:59;;;;;;;6.88;5.10;;;5.00;99.90;;;;;;5033663;28;20056;-89
2021/09/30 03:11:28;;;;;;;5.88;4.00;;;5.00;99.90;;;;;;5032485;28;20060;-88
2021/09/30 03:13:57;;;;;;;10.10;6.43;;;5.00;99.90;;;;;;5032821;28;20104;-89
2021/09/30 03:17:09;;;;;;;4.88;4.38;;;5.00;99.90;;;;;;5032295;28;20057;-88
2021/09/30 03:22:14;;;;;;;3.40;3.10;;;5.00;99.90;;;;;;5033625;28;20132;-87
2021/09/30 03:24:46;;;;;;;9.13;3.40;;;5.00;99.90;;;;;;5032517;28;20071;-88
2021/09/30 03:27:13;;;;;;;6.80;2.83;;;5.00;99.90;;;;;;5033052;28;20490;-88
2021/09/30 03:29:40;;;;;;;4.03;2.72;;;4.90;99.90;;;;;;5033191;28;20476;-88
2021/09/30 03:32:08;;;;;;;4.55;3.05;;;4.90;99.90;;;;;;5031751;28;20052;-88
2021/09/30 03:34:35;;;;;;;4.53;2.55;;;5.00;99.90;;;;;;5032334;28;20059;-88
2021/09/30 03:37:03;;;;;;;16.60;3.13;;;4.90;99.90;;;;;;5038624;28;20617;-88
2021/09/30 03:39:30;;;;;;;4.50;2.38;;;4.90;99.90;;;;;;5051961;28;20109;-88
2021/09/30 03:41:58;;;;;;;5.20;2.10;;;4.80;99.90;;;;;;5032448;28;20132;-88
2021/09/30 03:44:25;;;;;;;4.00;2.60;;;4.70;99.90;;;;;;5034683;28;20149;-87
2021/09/30 03:46:52;;;;;;;2.47;2.28;;;4.60;99.90;;;;;;5036872;28;20042;-88
2021/09/30 03:49:32;;;;;;;6.35;3.10;;;4.60;99.90;;;;;;5036085;28;20052;-88
2021/09/30 03:52:09;;;;;;;3.78;2.35;;;4.50;99.90;;;;;;5037135;28;20441;-88
2021/09/30 03:57:36;;;;;;;5.32;3.17;;;4.60;99.90;;;;;;5036838;28;20498;-88
2021/09/30 04:00:04;;;;;;;10.88;5.38;;;4.60;99.90;;;;;;5036301;28;20136;-88
2021/09/30 04:02:31;;;;;;;15.63;5.10;;;4.60;99.90;;;;;;5035767;28;20092;-88
2021/09/30 04:04:58;;;;;;;8.98;5.50;;;4.60;99.90;;;;;;5035629;28;20136;-87
2021/09/30 04:07:25;;;;;;;11.40;6.78;;;4.60;99.90;;;;;;5035557;28;20123;-85
2021/09/30 04:09:52;;;;;;;7.18;5.88;;;4.70;99.90;;;;;;5035425;28;20049;-87
2021/09/30 04:12:18;;;;;;;9.85;6.70;;;4.70;99.90;;;;;;5035609;28;20051;-88
2021/09/30 04:14:45;;;;;;;8.73;5.28;;;4.80;99.90;;;;;;5035837;28;20077;-88
2021/09/30 04:17:12;;;;;;;7.50;4.60;;;4.80;99.90;;;;;;5035106;28;20133;-86
2021/09/30 04:19:39;;;;;;;6.13;4.30;;;4.90;99.90;;;;;;5036682;28;20080;-87
2021/09/30 04:22:06;;;;;;;10.35;4.07;;;5.00;99.90;;;;;;5035347;28;20128;-88
2021/09/30 04:24:33;;;;;;;9.52;3.78;;;5.00;99.90;;;;;;5035177;28;20401;-90
2021/09/30 04:27:00;;;;;;;12.73;4.13;;;5.10;99.90;;;;;;5035508;28;20052;-88
2021/09/30 04:29:28;;;;;;;4.35;3.47;;;5.10;99.90;;;;;;5035211;28;20167;-88
2021/09/30 04:31:54;;;;;;;6.93;4.45;;;5.10;99.90;;;;;;5037221;28;20080;-87
2021/09/30 04:34:22;;;;;;;4.15;3.30;;;5.10;99.90;;;;;;5036046;28;20045;-88
2021/09/30 04:36:49;;;;;;;5.32;3.78;;;5.20;99.90;;;;;;5035187;28;20136;-88
2021/09/30 04:39:17;;;;;;;13.85;3.72;;;5.20;99.90;;;;;;5035011;28;20049;-88
2021/09/30 04:41:45;;;;;;;14.93;3.65;;;5.20;99.90;;;;;;5035373;28;20049;-88
2021/09/30 04:44:12;;;;;;;5.75;2.95;;;5.10;99.90;;;;;;5035309;28;20049;-88
2021/09/30 04:46:40;;;;;;;5.47;3.22;;;5.10;99.90;;;;;;5035038;28;20052;-88
2021/09/30 04:49:07;;;;;;;4.93;3.30;;;5.00;99.90;;;;;;5035703;28;20045;-88
2021/09/30 04:51:34;;;;;;;9.45;3.60;;;4.90;99.90;;;;;;5035633;28;20053;-89
2021/09/30 04:54:01;;;;;;;6.85;3.92;;;4.80;99.90;;;;;;5035934;28;20109;-89
2021/09/30 04:56:29;;;;;;;8.07;3.30;;;4.80;99.90;;;;;;5043010;28;20046;-88
2021/09/30 04:58:56;;;;;;;8.98;3.80;;;4.70;99.90;;;;;;5053007;28;20049;-89
2021/09/30 05:01:23;;;;;;;4.50;3.30;;;4.70;99.90;;;;;;5034684;28;20136;-89
2021/09/30 05:03:50;;;;;;;4.97;2.92;;;4.70;99.90;;;;;;5034628;28;20052;-89
2021/09/30 05:06:18;;;;;;;3.75;3.40;;;4.70;99.90;;;;;;5034486;28;20482;-88
2021/09/30 05:08:48;;;;;;;6.88;3.92;;;4.60;99.90;;;;;;5034672;28;20128;-88
2021/09/30 05:11:15;;;;;;;10.80;4.55;;;4.70;99.90;;;;;;5034653;28;20453;-89
2021/09/30 05:13:43;;;;;;;7.90;4.32;;;4.70;99.90;;;;;;5035685;28;20052;-89
2021/09/30 05:16:13;;;;;;;8.75;4.25;;;4.70;99.90;;;;;;5034350;28;20057;-88
2021/09/30 05:18:46;;;;;;;8.63;3.72;;;4.70;99.90;;;;;;5033708;28;20064;-88
2021/09/30 05:21:14;;;;;;;4.55;3.25;;;4.70;99.90;;;;;;5042499;28;20482;-88
2021/09/30 05:23:41;;;;;;;7.60;4.03;;;4.70;99.90;;;;;;5036851;28;20049;-89
2021/09/30 05:26:08;;;;;;;6.32;3.17;;;4.70;99.90;;;;;;5036064;28;20080;-89
2021/09/30 05:28:35;;;;;;;7.00;3.78;;;4.60;99.90;;;;;;5035089;28;20052;-88
2021/09/30 05:31:02;;;;;;;10.65;4.45;;;4.60;99.90;;;;;;5036568;28;20132;-89
2021/09/30 05:33:29;;;;;;;6.75;3.80;;;4.60;99.90;;;;;;5033604;28;20064;-89
2021/09/30 05:35:56;;;;;;;4.53;3.50;;;4.50;99.90;;;;;;5034267;28;20064;-89
2021/09/30 05:38:23;;;;;;;3.80;3.05;;;4.60;99.90;;;;;;5034319;28;20042;-89
2021/09/30 05:40:50;;;;;;;5.40;4.00;;;4.50;99.90;;;;;;5036726;28;20058;-90
2021/09/30 05:43:28;;;;;;;6.10;4.07;;;4.50;99.90;;;;;;5034208;28;20077;-88
2021/09/30 05:45:56;;;;;;;7.97;5.55;;;4.40;99.90;;;;;;5033319;28;20132;-89
2021/09/30 05:48:24;;;;;;;8.20;5.90;;;4.60;99.90;;;;;;5033226;28;20046;-90
2021/09/30 05:50:52;;;;;;;15.52;6.30;;;4.60;99.90;;;;;;5033257;28;20060;-89
2021/09/30 05:53:20;;;;;;;8.15;6.00;;;4.60;99.90;;;;;;5034032;28;20049;-89
2021/09/30 05:55:47;;;;;;;11.30;6.20;;;4.60;99.90;;;;;;5032820;28;20508;-89
2021/09/30 05:58:15;;;;;;;7.80;5.85;;;4.70;99.90;;;;;;5032737;28;20510;-89
2021/09/30 06:01:05;;;;;;;10.30;5.43;;;4.80;99.90;;;;;;5033365;28;20081;-89
2021/09/30 06:04:42;;;;;;;7.50;5.00;;;4.80;99.90;;;;;;5032916;28;20076;-88
2021/09/30 06:09:12;;;;;;;8.40;4.85;;;4.90;99.90;;;;;;5033024;28;20640;-89
2021/09/30 06:12:29;;;;;;;16.80;6.60;;;5.00;99.90;;;;;;5034278;28;20045;-89
2021/09/30 06:14:56;;;;;;;;;;;5.10;99.90;;;;;;5043694;28;20061;-89
2021/09/30 06:17:23;;;;;;;14.52;6.68;;;5.20;99.90;;;;;;5008389;28;1193855;-89
2021/09/30 06:19:50;;;;;;;8.68;5.95;;;5.20;99.90;;;;;;5034384;28;20049;-89
2021/09/30 06:22:17;;;;;;;8.00;5.63;;;5.30;99.90;;;;;;5033898;28;20132;-89
2021/09/30 06:24:44;;;;;;;11.85;8.23;;;5.30;99.90;;;;;;5033308;28;20057;-89
2021/09/30 06:27:29;;;;;;;30.40;15.85;;;5.40;99.90;;;;;;5033157;28;20049;-88
2021/09/30 06:29:56;;;;;;;17.20;11.65;;;5.40;99.90;;;;;;5032979;28;20049;-89
2021/09/30 06:32:23;;;;;;;9.57;6.75;;;5.50;99.90;;;;;;5036052;28;20409;-87
2021/09/30 06:34:50;;;;;;;8.98;6.00;;;5.60;99.90;;;;;;5033051;28;20045;-90
2021/09/30 06:37:17;;;;;;;15.38;7.28;;;5.60;99.90;;;;;;5032830;28;20054;-89
2021/09/30 06:39:44;;;;;;;12.57;6.55;;;5.70;99.90;;;;;;5033329;28;20049;-87
2021/09/30 06:42:10;;;;;;;10.93;7.15;;;5.80;99.90;;;;;;5033147;28;20091;-87
2021/09/30 06:44:37;;;;;;;13.20;6.80;;;6.00;99.90;;;;;;5032120;28;20046;-89
2021/09/30 06:47:04;;;;;;;12.43;6.60;;;6.10;99.90;;;;;;5033063;28;20395;-88
2021/09/30 06:49:31;;;;;;;13.75;7.03;;;6.20;99.90;;;;;;5033902;28;20095;-90
2021/09/30 06:51:57;;;;;;;7.55;5.60;;;6.30;99.90;;;;;;5032784;28;20053;-88
2021/09/30 06:54:24;;;;;;;9.90;5.00;;;6.50;99.90;;;;;;5032628;28;20045;-86
2021/09/30 06:56:51;;;;;;;6.85;4.38;;;6.80;99.90;;;;;;5032747;28;20052;-85
2021/09/30 06:59:32;;;;;;;5.32;3.78;;;7.20;99.90;;;;;;5032658;28;20049;-88
2021/09/30 07:02:03;;;;;;;7.05;2.70;;;7.60;99.90;;;;;;5032332;28;20063;-84
2021/09/30 07:04:32;;;;;;;7.72;2.83;;;8.00;99.90;;;;;;5032301;28;20414;-85
2021/09/30 07:06:59;;;;;;;6.13;2.20;;;8.40;99.90;;;;;;5033407;28;20055;-85
2021/09/30 07:09:26;;;;;;;3.03;1.80;;;8.70;99.90;;;;;;5032158;28;20053;-87
2021/09/30 07:11:53;;;;;;;4.50;2.00;;;9.00;99.90;;;;;;5033406;28;20119;-87
2021/09/30 07:14:20;;;;;;;5.32;1.52;;;9.20;99.90;;;;;;5032161;28;20048;-88
2021/09/30 07:16:47;;;;;;;3.08;1.38;;;9.50;99.90;;;;;;5033130;28;20063;-85
2021/09/30 07:19:13;;;;;;;3.15;1.35;;;9.70;99.90;;;;;;5031733;28;20490;-86
2021/09/30 07:21:40;;;;;;;4.97;1.38;;;9.90;99.90;;;;;;5032529;28;20053;-86
2021/09/30 07:24:08;;;;;;;4.20;0.98;;;10.20;99.90;;;;;;5033698;28;20052;-89
2021/09/30 07:26:35;;;;;;;4.15;0.93;;;10.40;99.90;;;;;;5032632;28;20056;-89
2021/09/30 07:29:03;;;;;;;3.58;1.20;;;10.60;99.90;;;;;;5032299;28;20136;-86
2021/09/30 07:31:30;;;;;;;2.67;1.20;;;10.80;99.90;;;;;;5034762;28;20045;-85
2021/09/30 07:33:57;;;;;;;5.03;1.02;;;11.20;99.90;;;;;;5052391;28;20045;-86
2021/09/30 07:36:24;;;;;;;4.07;1.17;;;11.60;99.90;;;;;;5038790;28;20075;-87
2021/09/30 07:38:51;;;;;;;9.23;0.98;;;12.00;99.90;;;;;;5032307;28;20482;-86
2021/09/30 07:41:18;;;;;;;6.90;1.48;;;12.30;99.90;;;;;;5031893;28;20141;-88
2021/09/30 07:43:44;;;;;;;6.15;1.20;;;12.80;99.90;;;;;;5032244;28;20051;-86
2021/09/30 07:46:11;;;;;;;6.70;1.08;;;13.40;99.90;;;;;;5032110;28;20128;-86
2021/09/30 07:48:38;;;;;;;13.52;1.27;;;14.10;99.90;;;;;;5032876;28;20056;-86
2021/09/30 07:51:06;;;;;;;4.22;1.08;;;15.20;99.90;;;;;;5031987;28;20113;-88
2021/09/30 07:53:33;;;;;;;2.58;0.57;;;15.30;99.90;;;;;;5031874;28;20049;-91
2021/09/30 07:56:00;;;;;;;1.38;0.50;;;15.60;99.90;;;;;;5031623;28;20456;-86
2021/09/30 07:58:26;;;;;;;1.25;0.60;;;16.50;99.90;;;;;;5031959;28;20081;-87
2021/09/30 08:00:53;;;;;;;4.35;0.73;;;17.90;99.90;;;;;;5032981;28;20311;-87
2021/09/30 08:03:20;;;;;;;1.73;0.52;;;20.00;99.70;;;;;;5032864;28;20060;-87
2021/09/30 08:05:47;;;;;;;3.60;0.60;;;21.10;94.70;;;;;;5033013;28;20539;-87
2021/09/30 08:08:15;;;;;;;1.63;0.47;;;21.00;91.60;;;;;;5032708;28;20046;-87
2021/09/30 08:10:42;;;;;;;2.45;0.70;;;21.60;90.20;;;;;;5031871;28;20067;-87
2021/09/30 08:13:09;;;;;;;2.67;0.63;;;21.80;84.30;;;;;;5031871;28;20052;-88
2021/09/30 08:15:36;;;;;;;9.27;0.70;;;21.30;87.00;;;;;;5031764;28;20574;-87
2021/09/30 08:18:03;;;;;;;15.20;1.42;;;20.90;85.90;;;;;;5031856;28;20060;-88
2021/09/30 08:20:31;;;;;;;3.60;0.80;;;21.90;87.50;;;;;;5031988;28;20049;-87
2021/09/30 08:22:58;;;;;;;1.35;0.63;;;22.70;82.40;;;;;;5031620;28;20049;-87
2021/09/30 08:25:25;;;;;;;11.10;2.67;;;23.00;76.80;;;;;;5032213;28;20064;-87
2021/09/30 08:27:52;;;;;;;2.13;0.80;;;24.10;75.80;;;;;;5032795;28;20041;-85
2021/09/30 08:30:18;;;;;;;4.00;0.50;;;25.20;72.70;;;;;;5033068;28;20565;-85
2021/09/30 08:32:45;;;;;;;3.50;0.80;;;25.30;68.50;;;;;;5035239;28;20585;-86
2021/09/30 08:35:12;;;;;;;2.28;0.63;;;24.30;67.00;;;;;;5035109;28;20049;-88
2021/09/30 08:37:39;;;;;;;4.15;0.60;;;23.40;70.30;;;;;;5036308;28;20128;-87
2021/09/30 08:40:07;;;;;;;1.00;0.50;;;23.30;70.90;;;;;;5035339;28;20468;-89
2021/09/30 08:42:34;;;;;;;2.38;0.88;;;22.70;72.80;;;;;;5035459;28;20071;-89
2021/09/30 08:45:01;;;;;;;1.98;0.80;;;22.30;73.20;;;;;;5035998;28;20068;-87
2021/09/30 08:47:29;;;;;;;3.17;0.75;;;23.60;71.50;;;;;;5034981;28;20051;-85
2021/09/30 08:49:55;;;;;;;0.90;0.43;;;24.30;70.50;;;;;;5035564;28;20053;-86
2021/09/30 08:52:22;;;;;;;1.90;0.52;;;25.60;68.90;;;;;;5044539;28;20419;-86
2021/09/30 08:54:49;;;;;;;0.65;0.40;;;26.80;63.80;;;;;;5039783;28;20048;-87
2021/09/30 08:57:16;;;;;;;1.80;0.60;;;28.30;60.30;;;;;;5034554;28;20053;-85
2021/09/30 09:00:05;;;;;;;2.08;0.60;;;28.80;58.50;;;;;;5035727;28;20084;-85
2021/09/30 09:02:37;;;;;;;2.55;0.50;;;27.80;59.00;;;;;;5036300;28;20046;-86
2021/09/30 09:05:05;;;;;;;5.60;0.75;;;28.30;57.20;;;;;;5034293;28;20046;-87
2021/09/30 09:07:32;;;;;;;3.55;0.90;;;27.40;57.40;;;;;;5034815;28;20471;-87
2021/09/30 09:10:03;;;;;;;2.05;0.63;;;25.00;60.00;;;;;;5035731;28;20140;-89
2021/09/30 09:12:33;;;;;;;5.63;0.80;;;23.50;62.30;;;;;;5034614;28;20105;-87
2021/09/30 09:15:01;;;;;;;3.10;0.93;;;22.70;65.80;;;;;;5035235;28;20132;-85
2021/09/30 09:17:28;;;;;;;1.27;0.50;;;22.30;65.40;;;;;;5033843;28;20085;-85
2021/09/30 09:20:00;;;;;;;4.60;0.50;;;22.30;69.00;;;;;;5034340;28;20509;-88
2021/09/30 09:22:31;;;;;;;3.10;0.50;;;22.80;68.40;;;;;;5034230;28;20057;-87
2021/09/30 09:25:12;;;;;;;1.95;0.60;;;24.00;66.00;;;;;;5033835;28;20042;-86
2021/09/30 09:27:49;;;;;;;3.80;0.70;;;24.20;62.60;;;;;;5034236;28;20133;-86
2021/09/30 09:30:33;;;;;;;4.13;0.60;;;24.60;61.60;;;;;;5034177;28;20425;-84
2021/09/30 09:33:05;;;;;;;2.33;0.52;;;26.10;59.30;;;;;;5035208;28;20081;-84
2021/09/30 09:36:05;;;;;;;3.90;0.50;;;26.40;59.60;;;;;;5035187;28;20046;-84
2021/09/30 09:38:51;;;;;;;3.10;0.60;;;27.00;58.20;;;;;;5035429;28;20482;-84
2021/09/30 09:41:24;;;;;;;4.13;0.50;;;25.70;57.40;;;;;;5034199;28;20084;-86
2021/09/30 09:43:53;;;;;;;9.13;1.30;;;24.20;60.20;;;;;;5034058;28;20048;-86
2021/09/30 09:46:22;;;;;;;2.05;0.80;;;25.60;61.50;;;;;;5034579;28;20091;-94
2021/09/30 09:48:56;;;;;;;7.03;0.90;;;26.20;57.50;;;;;;5034036;28;20107;-88
2021/09/30 09:51:25;;;;;;;1.10;0.50;;;25.50;62.10;;;;;;5033914;28;20132;-89
2021/09/30 09:53:56;;;;;;;7.55;0.90;;;26.10;58.90;;;;;;5027135;28;20065;-86
2021/09/30 09:56:23;;;;;;;3.97;0.77;;;27.30;56.80;;;;;;5036002;28;20049;-87
2021/09/30 09:58:55;;;;;;;3.80;0.80;;;26.60;56.40;;;;;;5035220;28;20215;-86
2021/09/30 10:01:43;;;;;;;2.67;0.70;;;23.80;57.80;;;;;;5035666;28;20045;-86
2021/09/30 10:04:12;;;;;;;29.55;7.30;;;22.40;64.10;;;;;;5035138;28;20049;-86
2021/09/30 10:06:40;;;;;;;3.47;0.70;;;23.10;63.20;;;;;;5033285;28;20053;-86
2021/09/30 10:09:11;;;;;;;2.60;0.65;;;22.70;65.30;;;;;;5036863;28;20053;-86
2021/09/30 10:11:38;;;;;;;3.08;0.55;;;22.50;63.10;;;;;;5040711;28;20080;-86
2021/09/30 10:14:06;;;;;;;5.07;0.82;;;22.00;65.40;;;;;;5033198;28;20506;-85
2021/09/30 10:16:35;;;;;;;0.77;0.60;;;21.30;67.50;;;;;;5032962;28;20119;-88
2021/09/30 10:19:07;;;;;;;3.25;0.60;;;20.90;70.00;;;;;;5033122;28;20483;-84
2021/09/30 10:21:36;;;;;;;2.00;0.55;;;20.50;71.00;;;;;;5034128;28;20057;-85
2021/09/30 10:24:23;;;;;;;2.90;0.52;;;21.20;69.80;;;;;;5034060;28;20049;-85
2021/09/30 10:26:56;;;;;;;1.48;0.60;;;20.40;72.00;;;;;;5032973;28;20132;-85
2021/09/30 10:29:35;;;;;;;;;;;20.50;71.20;;;;;;5033062;28;20052;-86
2021/09/30 10:32:04;;;;;;;3.92;0.52;;;20.20;69.80;;;;;;5032772;28;19921;-85
2021/09/30 10:34:33;;;;;;;2.30;0.73;;;20.10;70.50;;;;;;5032697;28;20481;-87
2021/09/30 10:37:21;;;;;;;5.88;1.17;;;19.20;71.40;;;;;;5033822;28;20045;-87
2021/09/30 10:40:15;;;;;;;2.55;0.60;;;18.50;73.70;;;;;;5032895;28;20103;-86
2021/09/30 10:42:57;;;;;;;1.67;0.47;;;20.00;76.70;;;;;;5032501;28;20049;-87
2021/09/30 10:45:27;;;;;;;12.93;2.95;;;22.10;67.00;;;;;;5032310;28;20538;-86
2021/09/30 10:48:04;;;;;;;1.77;0.60;;;21.10;67.80;;;;;;5033854;28;20050;-87
2021/09/30 10:50:54;;;;;;;3.58;0.65;;;21.30;67.70;;;;;;5032975;28;20406;-86
2021/09/30 10:53:46;;;;;;;2.72;0.43;;;21.10;67.70;;;;;;5036587;28;20132;-86
2021/09/30 10:56:33;;;;;;;0.57;0.50;;;20.90;69.00;;;;;;5032286;28;20113;-86
2021/09/30 10:59:09;;;;;;;5.68;0.52;;;22.40;67.40;;;;;;5033331;28;20054;-85
2021/09/30 11:01:45;;;;;;;4.72;0.70;;;22.80;63.70;;;;;;5033983;28;20100;-86
2021/09/30 11:04:13;;;;;;;4.25;0.60;;;23.00;61.10;;;;;;5033156;28;20054;-87
2021/09/30 11:06:40;;;;;;;0.95;0.32;;;22.30;60.60;;;;;;5032762;28;20055;-86
2021/09/30 11:09:20;;;;;;;19.90;3.88;;;21.90;62.60;;;;;;5032862;28;20050;-86
2021/09/30 11:11:50;;;;;;;1.98;0.60;;;22.60;62.30;;;;;;5032944;28;20140;-86
2021/09/30 11:14:20;;;;;;;1.88;0.47;;;23.50;60.20;;;;;;5033029;28;20052;-86
2021/09/30 11:16:50;;;;;;;13.27;1.25;;;23.50;58.30;;;;;;5033647;28;20053;-87
2021/09/30 11:19:43;;;;;;;1.50;0.47;;;23.20;59.40;;;;;;5035343;28;20427;-87
2021/09/30 11:22:11;;;;;;;1.33;0.30;;;23.50;59.40;;;;;;5032876;28;20083;-87
2021/09/30 11:24:50;;;;;;;3.20;0.47;;;24.20;57.60;;;;;;5033243;28;20045;-86
2021/09/30 11:27:18;;;;;;;1.42;0.40;;;24.50;58.70;;;;;;5048149;28;20052;-86
2021/09/30 11:29:46;;;;;;;2.42;0.50;;;23.40;57.50;;;;;;5043417;28;20081;-87
2021/09/30 11:32:12;;;;;;;4.47;0.63;;;22.40;57.70;;;;;;5033208;28;20405;-86
2021/09/30 11:34:48;;;;;;;3.58;0.70;;;21.20;60.40;;;;;;5032747;28;20080;-86
2021/09/30 11:37:28;;;;;;;2.30;0.85;;;20.30;63.10;;;;;;5032068;28;20064;-87
2021/09/30 11:39:58;;;;;;;7.00;1.55;;;20.20;66.30;;;;;;5032716;28;20405;-88
2021/09/30 11:42:38;;;;;;;3.83;2.17;;;20.60;65.80;;;;;;5031596;28;20056;-86
2021/09/30 11:45:09;;;;;;;2.65;0.68;;;21.10;64.30;;;;;;5033157;28;20045;-87
2021/09/30 11:47:38;;;;;;;4.13;0.50;;;20.60;63.90;;;;;;5032353;28;20433;-85
2021/09/30 11:50:08;;;;;;;1.85;0.40;;;19.20;64.80;;;;;;5032179;28;20045;-86
2021/09/30 11:52:35;;;;;;;2.38;0.43;;;18.40;68.80;;;;;;5033194;28;20049;-85
2021/09/30 11:55:16;;;;;;;1.52;0.55;;;17.70;70.40;;;;;;5032778;28;20069;-85
2021/09/30 11:57:55;;;;;;;2.88;1.50;;;17.80;72.10;;;;;;5033258;28;20060;-86
2021/09/30 12:00:23;;;;;;;6.72;3.67;;;19.00;71.20;;;;;;5031907;28;20049;-87
2021/09/30 12:02:54;;;;;;;1.75;1.20;;;20.20;69.30;;;;;;5033021;28;20109;-86
2021/09/30 12:05:24;;;;;;;1.92;0.68;;;20.80;65.20;;;;;;5033016;28;20486;-86
2021/09/30 12:07:51;;;;;;;3.63;0.60;;;21.10;64.30;;;;;;5035476;28;20045;-87
2021/09/30 12:10:18;;;;;;;5.68;0.80;;;20.90;64.10;;;;;;5036555;28;20045;-86
2021/09/30 12:12:46;;;;;;;1.92;0.50;;;20.40;65.50;;;;;;5035595;28;20498;-86
2021/09/30 12:15:13;;;;;;;1.88;0.55;;;20.30;64.80;;;;;;5035690;28;20042;-87
2021/09/30 12:17:40;;;;;;;2.42;0.52;;;19.80;67.80;;;;;;5035427;28;20096;-85
2021/09/30 12:20:13;;;;;;;1.27;0.57;;;19.40;67.10;;;;;;5036650;28;20049;-86
2021/09/30 12:22:49;;;;;;;3.43;0.57;;;19.20;67.10;;;;;;5035504;28;20105;-85
2021/09/30 12:25:19;;;;;;;2.10;0.70;;;18.70;68.30;;;;;;5036221;28;20123;-86
2021/09/30 12:27:48;;;;;;;1.98;0.52;;;18.00;69.60;;;;;;5035286;28;20155;-86
2021/09/30 12:30:18;;;;;;;4.18;0.50;;;17.30;71.00;;;;;;5036474;28;20136;-86
2021/09/30 12:32:48;;;;;;;2.33;0.40;;;16.80;73.70;;;;;;5026316;28;20054;-87
2021/09/30 12:35:32;;;;;;;5.25;0.88;;;16.60;71.30;;;;;;5024622;28;20041;-85
2021/09/30 12:38:03;;;;;;;1.88;0.50;;;16.30;72.40;;;;;;5034250;28;20041;-87
2021/09/30 12:40:43;;;;;;;2.90;0.65;;;16.00;72.30;;;;;;5035032;28;20050;-85
2021/09/30 12:43:20;;;;;;;3.92;0.70;;;15.80;74.20;;;;;;5035339;28;20045;-86
2021/09/30 12:46:13;;;;;;;3.20;0.45;;;15.60;74.80;;;;;;5054653;28;20045;-85
2021/09/30 12:49:03;;;;;;;8.25;0.95;;;15.40;75.10;;;;;;5051597;28;20049;-85
2021/09/30 12:51:30;;;;;;;3.75;0.52;;;15.50;78.00;;;;;;5037260;28;20104;-86
2021/09/30 12:53:56;;;;;;;2.83;0.75;;;15.50;76.30;;;;;;5034537;28;20504;-85
2021/09/30 12:56:29;;;;;;;2.58;0.40;;;15.60;77.70;;;;;;5034714;28;20047;-86
2021/09/30 12:59:08;;;;;;;2.30;0.73;;;15.70;78.60;;;;;;5035759;28;20076;-86
2021/09/30 13:01:36;;;;;;;4.18;1.15;;;16.00;79.80;;;;;;5035823;28;20049;-88
2021/09/30 13:04:11;;;;;;;2.17;0.80;;;16.60;81.50;;;;;;5034337;28;20054;-85
2021/09/30 13:07:01;;;;;;;1.27;0.40;;;17.00;77.00;;;;;;5034507;28;20053;-86
2021/09/30 13:09:30;;;;;;;2.97;0.55;;;17.20;72.40;;;;;;5035695;28;20498;-84
2021/09/30 13:12:01;;;;;;;4.45;0.70;;;17.00;73.70;;;;;;5033525;28;20109;-87
2021/09/30 13:14:35;;;;;;;2.88;0.75;;;16.80;77.50;;;;;;5034511;28;20081;-87
2021/09/30 13:17:05;;;;;;;4.78;0.50;;;16.80;75.40;;;;;;5035223;28;20144;-85
2021/09/30 13:19:47;;;;;;;2.33;0.70;;;16.80;72.30;;;;;;5033970;28;20478;-86
2021/09/30 13:22:24;;;;;;;4.75;0.60;;;16.80;72.60;;;;;;5035704;28;20077;-85
2021/09/30 13:24:53;;;;;;;2.40;0.90;;;16.80;73.30;;;;;;5036384;28;20049;-86
2021/09/30 13:27:29;;;;;;;2.50;0.70;;;16.90;73.70;;;;;;5034144;28;20053;-84
2021/09/30 13:29:57;;;;;;;0.70;0.40;;;16.90;73.30;;;;;;5034461;28;20042;-87
2021/09/30 13:32:26;;;;;;;4.75;1.10;;;16.80;74.90;;;;;;5034283;28;20050;-87
2021/09/30 13:34:57;;;;;;;3.17;0.40;;;16.80;71.70;;;;;;5034666;28;20052;-86
2021/09/30 13:37:25;;;;;;;3.47;0.70;;;16.70;74.30;;;;;;5033987;28;20080;-86
2021/09/30 13:39:56;;;;;;;3.08;0.40;;;16.40;73.50;;;;;;5035526;28;20053;-92
2021/09/30 13:42:24;;;;;;;2.60;0.57;;;16.00;74.60;;;;;;5035521;28;20053;-87
2021/09/30 13:44:51;;;;;;;5.22;0.68;;;15.80;74.00;;;;;;5037752;28;20533;-86
2021/09/30 13:47:18;;;;;;;7.45;0.90;;;15.60;73.90;;;;;;5034409;28;20063;-85
2021/09/30 13:49:45;;;;;;;15.40;1.13;;;15.60;75.20;;;;;;5035425;28;20472;-87
2021/09/30 13:52:12;;;;;;;20.05;1.33;;;15.50;76.20;;;;;;5035848;28;20398;-86
2021/09/30 13:54:39;;;;;;;9.30;0.40;;;15.50;79.00;;;;;;5034954;28;20048;-86
2021/09/30 13:57:06;;;;;;;3.38;0.43;;;15.40;76.60;;;;;;5034438;28;20045;-86
2021/09/30 13:59:33;;;;;;;1.73;0.75;;;15.40;80.30;;;;;;5035488;28;20049;-86
2021/09/30 14:02:19;;;;;;;2.63;0.50;;;15.40;81.20;;;;;;5036563;28;20482;-86
2021/09/30 14:04:46;;;;;;;0.40;0.30;;;15.40;79.90;;;;;;5045584;28;20113;-88
2021/09/30 14:07:13;;;;;;;2.90;0.90;;;15.40;78.50;;;;;;5053143;28;20091;-86
2021/09/30 14:09:40;;;;;;;2.45;0.57;;;15.30;78.30;;;;;;5033412;28;20049;-86
2021/09/30 14:12:07;;;;;;;5.90;0.70;;;15.10;79.10;;;;;;5033679;28;20045;-86
2021/09/30 14:14:34;;;;;;;0.80;0.38;;;15.00;81.20;;;;;;5035064;28;20045;-86
2021/09/30 14:17:02;;;;;;;3.67;0.63;;;15.00;81.30;;;;;;5033035;28;20052;-86
2021/09/30 14:19:28;;;;;;;1.77;0.30;;;15.00;82.70;;;;;;5033448;28;20317;-86
2021/09/30 14:21:56;;;;;;;0.70;0.40;;;15.20;81.90;;;;;;5033814;28;20128;-86
2021/09/30 14:24:24;;;;;;;4.40;0.50;;;15.20;83.10;;;;;;5033325;28;20057;-86
2021/09/30 14:26:51;;;;;;;1.15;0.32;;;15.40;83.60;;;;;;5033232;28;20053;-87
2021/09/30 14:29:17;;;;;;;1.40;0.50;;;15.50;84.00;;;;;;5032315;28;20490;-86
2021/09/30 14:31:44;;;;;;;5.10;0.40;;;15.60;84.00;;;;;;5036442;28;20054;-87
2021/09/30 14:34:11;;;;;;;2.15;0.60;;;15.60;80.60;;;;;;5034320;28;20052;-85
2021/09/30 14:36:38;;;;;;;2.55;0.60;;;15.40;80.70;;;;;;5033936;28;20080;-86
2021/09/30 14:39:06;;;;;;;1.80;0.40;;;15.20;82.50;;;;;;5034020;28;20052;-86
2021/09/30 14:41:34;;;;;;;2.38;0.47;;;14.90;80.00;;;;;;5032848;28;20049;-86
2021/09/30 14:44:02;;;;;;;1.60;0.65;;;14.70;82.50;;;;;;5032652;28;20080;-86
2021/09/30 14:46:28;;;;;;;2.33;0.60;;;14.50;85.40;;;;;;5032469;28;20401;-85
2021/09/30 14:48:55;;;;;;;2.55;0.43;;;14.20;89.40;;;;;;5033179;28;20049;-86
2021/09/30 14:51:22;;;;;;;5.18;0.65;;;14.00;91.00;;;;;;5032631;28;20091;-86
2021/09/30 14:53:49;;;;;;;1.92;0.55;;;13.90;92.40;;;;;;5033538;28;20050;-85
2021/09/30 14:56:15;;;;;;;0.95;0.70;;;13.90;93.70;;;;;;5033540;28;20053;-86
2021/09/30 14:58:42;;;;;;;1.52;0.60;;;13.90;97.00;;;;;;5032963;28;20042;-86
2021/09/30 15:01:09;;;;;;;3.90;0.85;;;13.90;99.40;;;;;;5032609;28;20053;-85
2021/09/30 15:03:36;;;;;;;7.80;2.20;;;14.10;99.90;;;;;;5033128;28;20045;-86
2021/09/30 15:06:10;;;;;;;4.25;1.00;;;14.20;99.90;;;;;;5032065;28;20127;-86
2021/09/30 15:08:37;;;;;;;4.68;0.73;;;14.20;99.90;;;;;;5032855;28;20059;-87
2021/09/30 15:11:04;;;;;;;7.97;0.93;;;14.20;99.90;;;;;;5033484;28;20124;-84
2021/09/30 15:13:31;;;;;;;3.97;0.57;;;14.10;99.90;;;;;;5033493;28;20412;-85
2021/09/30 15:15:59;;;;;;;4.22;0.93;;;14.00;99.90;;;;;;5032023;28;20049;-86
2021/09/30 15:19:17;;;;;;;2.05;0.77;;;13.80;99.90;;;;;;5032419;28;20128;-86
2021/09/30 15:21:24;;;;;;;3.22;0.70;;;13.80;99.90;;;;;;5036387;28;20050;-86
2021/09/30 15:23:55;;;;;;;5.50;1.00;;;13.70;99.90;;;;;;5046955;28;20128;-86
2021/09/30 15:26:24;;;;;;;6.03;0.70;;;13.70;99.90;;;;;;5033519;28;20052;-85
2021/09/30 15:28:52;;;;;;;2.42;0.40;;;13.60;99.90;;;;;;5033138;28;20041;-85
2021/09/30 15:31:19;;;;;;;3.97;0.52;;;13.60;99.90;;;;;;5032005;28;20524;-86
2021/09/30 15:33:48;;;;;;;3.80;0.70;;;13.60;99.90;;;;;;5031893;28;20132;-85